createdAt,value
2018-07-05T00:00:58.803Z,14.90
2018-07-05T00:03:37.317Z,14.92
2018-07-05T00:06:15.840Z,15.00
2018-07-05T00:08:54.484Z,15.05
2018-07-05T00:11:33.065Z,15.12
2018-07-05T00:14:11.900Z,15.07
2018-07-05T00:16:50.451Z,15.10
2018-07-05T00:19:28.811Z,15.14
2018-07-05T00:22:07.440Z,15.14
2018-07-05T00:24:46.068Z,15.18
2018-07-05T00:27:24.652Z,15.29
2018-07-05T00:30:03.215Z,15.23
2018-07-05T00:32:41.736Z,15.19
2018-07-05T00:35:20.242Z,15.05
2018-07-05T00:37:58.753Z,15.17
2018-07-05T00:40:37.257Z,15.08
2018-07-05T00:43:15.889Z,15.06
2018-07-05T00:45:54.355Z,15.02
2018-07-05T00:48:32.721Z,15.21
2018-07-05T00:51:11.279Z,15.28
2018-07-05T00:53:50.099Z,15.37
2018-07-05T00:56:28.480Z,15.46
2018-07-05T00:59:07.009Z,15.46
2018-07-05T01:01:45.519Z,15.57
2018-07-05T01:04:23.956Z,15.54
2018-07-05T01:07:02.472Z,15.62
2018-07-05T01:09:40.996Z,15.73
2018-07-05T01:12:19.391Z,15.80
2018-07-05T01:14:57.795Z,15.78
2018-07-05T01:17:36.320Z,15.76
2018-07-05T01:20:14.736Z,15.72
2018-07-05T01:22:53.297Z,15.81
2018-07-05T01:25:31.765Z,15.79
2018-07-05T01:28:10.177Z,15.82
2018-07-05T01:30:48.696Z,15.90
2018-07-05T01:33:27.226Z,16.05
2018-07-05T01:36:05.658Z,15.93
2018-07-05T01:38:44.156Z,15.91
2018-07-05T01:41:22.753Z,15.89
2018-07-05T01:44:01.190Z,15.83
2018-07-05T01:46:39.728Z,15.89
2018-07-05T01:49:18.132Z,15.99
2018-07-05T01:51:56.628Z,16.08
2018-07-05T01:54:35.032Z,16.01
2018-07-05T01:57:13.587Z,15.93
2018-07-05T01:59:51.969Z,15.99
2018-07-05T02:02:30.404Z,15.96
2018-07-05T02:05:08.894Z,15.94
2018-07-05T02:07:47.341Z,15.91
2018-07-05T02:10:25.833Z,15.93
2018-07-05T02:13:04.285Z,15.90
2018-07-05T02:15:42.851Z,15.87
2018-07-05T02:18:21.324Z,15.79
2018-07-05T02:20:59.688Z,15.83
2018-07-05T02:23:38.112Z,15.87
2018-07-05T02:26:16.625Z,15.93
2018-07-05T02:28:55.080Z,15.84
2018-07-05T02:31:33.678Z,15.84
2018-07-05T02:34:12.229Z,15.78
2018-07-05T02:36:50.809Z,15.88
2018-07-05T02:39:35.105Z,15.92
2018-07-05T02:42:13.979Z,15.94
2018-07-05T02:44:53.394Z,15.95
2018-07-05T02:47:31.927Z,15.96
2018-07-05T02:50:10.490Z,15.96
2018-07-05T02:52:49.020Z,15.99
2018-07-05T02:55:27.548Z,15.94
2018-07-05T02:58:06.292Z,15.90
2018-07-05T03:00:45.612Z,15.91
2018-07-05T03:03:25.597Z,15.89
2018-07-05T03:06:04.501Z,15.94
2018-07-05T03:08:43.153Z,16.02
2018-07-05T03:11:21.739Z,15.99
2018-07-05T03:14:00.025Z,16.06
2018-07-05T03:16:38.836Z,16.02
2018-07-05T03:19:17.627Z,16.05
2018-07-05T03:21:56.224Z,15.93
2018-07-05T03:24:34.747Z,15.96
2018-07-05T03:27:13.355Z,15.98
2018-07-05T03:29:51.968Z,16.02
2018-07-05T03:32:30.603Z,16.08
2018-07-05T03:35:09.010Z,16.02
2018-07-05T03:37:47.388Z,15.98
2018-07-05T03:40:25.801Z,16.12
2018-07-05T03:43:04.324Z,16.07
2018-07-05T03:45:42.844Z,16.05
2018-07-05T03:48:21.346Z,15.92
2018-07-05T03:50:59.802Z,16.10
2018-07-05T03:53:38.344Z,16.13
2018-07-05T03:56:16.841Z,16.12
2018-07-05T03:58:55.368Z,16.09
2018-07-05T04:01:33.864Z,16.10
2018-07-05T04:04:12.200Z,16.14
2018-07-05T04:06:50.603Z,16.12
2018-07-05T04:09:29.118Z,16.22
2018-07-05T04:12:07.481Z,16.32
2018-07-05T04:14:45.903Z,16.37
2018-07-05T04:17:24.444Z,16.35
2018-07-05T04:20:02.829Z,16.34
2018-07-05T04:22:41.220Z,16.33
2018-07-05T04:25:19.824Z,16.33
2018-07-05T04:27:58.261Z,16.36
2018-07-05T04:30:37.100Z,16.39
2018-07-05T04:33:15.693Z,16.35
2018-07-05T04:35:54.225Z,16.42
2018-07-05T04:38:32.832Z,16.39
2018-07-05T04:41:11.333Z,16.42
2018-07-05T04:43:49.890Z,16.48
2018-07-05T04:46:28.369Z,16.48
2018-07-05T04:49:06.877Z,16.45
2018-07-05T04:51:45.397Z,16.42
2018-07-05T04:54:23.933Z,16.48
2018-07-05T04:57:02.490Z,16.52
2018-07-05T04:59:40.968Z,16.63
2018-07-05T05:02:19.532Z,16.66
2018-07-05T05:04:58.028Z,16.73
2018-07-05T05:07:36.595Z,16.83
2018-07-05T05:10:15.140Z,16.76
2018-07-05T05:12:53.648Z,16.76
2018-07-05T05:15:32.186Z,16.80
2018-07-05T05:18:10.684Z,16.84
2018-07-05T05:20:49.493Z,16.87
2018-07-05T05:23:27.937Z,16.78
2018-07-05T05:26:06.500Z,16.83
2018-07-05T05:28:44.973Z,16.99
2018-07-05T05:31:23.597Z,17.04
2018-07-05T05:34:02.213Z,17.08
2018-07-05T05:36:40.732Z,17.10
2018-07-05T05:39:19.674Z,17.13
2018-07-05T05:41:58.105Z,17.14
2018-07-05T05:44:36.584Z,17.11
2018-07-05T05:47:15.097Z,17.12
2018-07-05T05:49:53.625Z,16.99
2018-07-05T05:52:32.193Z,17.40
2018-07-05T05:55:10.657Z,17.36
2018-07-05T05:57:49.093Z,17.42
2018-07-05T06:00:27.623Z,17.42
2018-07-05T06:03:06.217Z,17.38
2018-07-05T06:05:44.861Z,17.20
2018-07-05T06:08:23.901Z,17.13
2018-07-05T06:11:02.470Z,17.29
2018-07-05T06:13:40.868Z,17.29
2018-07-05T06:16:19.493Z,17.14
2018-07-05T06:18:57.973Z,17.04
2018-07-05T06:21:36.332Z,17.04
2018-07-05T06:24:14.773Z,17.28
2018-07-05T06:26:53.285Z,17.18
2018-07-05T06:29:31.904Z,17.32
2018-07-05T06:32:10.288Z,17.46
2018-07-05T06:34:48.721Z,17.63
2018-07-05T06:37:27.125Z,17.67
2018-07-05T06:40:05.462Z,17.53
2018-07-05T06:42:44.039Z,17.75
2018-07-05T06:45:22.589Z,17.68
2018-07-05T06:48:01.117Z,17.48
2018-07-05T06:50:39.646Z,17.44
2018-07-05T06:53:18.102Z,17.64
2018-07-05T06:55:56.560Z,17.66
2018-07-05T06:58:35.093Z,17.59
2018-07-05T07:01:13.596Z,17.59
2018-07-05T07:03:52.025Z,17.57
2018-07-05T07:06:30.525Z,17.73
2018-07-05T07:09:08.909Z,17.76
2018-07-05T07:11:47.412Z,17.77
2018-07-05T07:14:26.146Z,18.05
2018-07-05T07:17:04.580Z,17.99
2018-07-05T07:19:43.062Z,18.25
2018-07-05T07:22:21.440Z,17.88
2018-07-05T07:24:59.991Z,17.88
2018-07-05T07:27:38.497Z,17.83
2018-07-05T07:30:17.001Z,17.69
2018-07-05T07:32:55.456Z,17.59
2018-07-05T07:35:33.968Z,18.01
2018-07-05T07:38:12.325Z,17.98
2018-07-05T07:40:50.887Z,17.91
2018-07-05T07:43:16.921Z,18.09
2018-07-05T07:45:43.013Z,18.22
2018-07-05T07:48:08.992Z,18.27
2018-07-05T07:50:35.018Z,18.48
2018-07-05T07:53:01.073Z,18.47
2018-07-05T07:55:27.109Z,18.30
2018-07-05T07:57:53.132Z,18.20
2018-07-05T08:00:19.161Z,18.05
2018-07-05T08:02:45.205Z,18.05
2018-07-05T08:05:11.237Z,17.88
2018-07-05T08:07:37.269Z,17.85
2018-07-05T08:10:03.304Z,17.90
2018-07-05T08:12:29.324Z,17.89
2018-07-05T08:14:55.357Z,17.93
2018-07-05T08:17:21.541Z,17.99
2018-07-05T08:19:47.570Z,17.98
2018-07-05T08:22:13.674Z,18.08
2018-07-05T08:24:39.714Z,18.04
2018-07-05T08:27:05.892Z,17.86
2018-07-05T08:29:31.932Z,17.87
2018-07-05T08:31:57.961Z,17.71
2018-07-05T08:34:24.019Z,17.47
2018-07-05T08:36:50.076Z,17.48
2018-07-05T08:39:16.106Z,17.60
2018-07-05T08:41:42.137Z,17.60
2018-07-05T08:44:08.181Z,17.74
2018-07-05T08:46:34.208Z,17.81
2018-07-05T08:49:00.236Z,17.67
2018-07-05T08:51:26.265Z,17.52
2018-07-05T08:53:52.310Z,17.55
2018-07-05T08:56:18.353Z,17.68
2018-07-05T08:58:44.384Z,17.78
2018-07-05T09:01:10.414Z,17.76
2018-07-05T09:03:36.432Z,18.01
2018-07-05T09:06:02.465Z,18.31
2018-07-05T09:08:28.494Z,18.28
2018-07-05T09:10:54.520Z,18.51
2018-07-05T09:13:20.558Z,18.48
2018-07-05T09:15:46.605Z,18.49
2018-07-05T09:18:12.692Z,18.31
2018-07-05T09:20:38.672Z,18.18
2018-07-05T09:23:04.712Z,17.83
2018-07-05T09:25:30.757Z,17.93
2018-07-05T09:27:56.784Z,18.16
2018-07-05T09:30:22.825Z,18.31
2018-07-05T09:32:48.849Z,18.41
2018-07-05T09:35:14.881Z,18.28
2018-07-05T09:37:40.911Z,18.39
2018-07-05T09:40:06.965Z,18.45
2018-07-05T09:42:32.987Z,18.27
2018-07-05T09:44:59.013Z,18.52
2018-07-05T09:47:25.033Z,18.32
2018-07-05T09:49:51.061Z,18.59
2018-07-05T09:52:17.080Z,18.63
2018-07-05T09:54:43.125Z,18.52
2018-07-05T09:57:09.146Z,18.46
2018-07-05T09:59:35.178Z,18.40
2018-07-05T10:02:01.203Z,18.45
2018-07-05T10:04:27.234Z,18.68
2018-07-05T10:06:53.248Z,18.60
2018-07-05T10:09:19.280Z,18.86
2018-07-05T10:11:45.314Z,18.68
2018-07-05T10:14:11.334Z,18.81
2018-07-05T10:16:37.369Z,18.74
2018-07-05T10:19:03.394Z,18.79
2018-07-05T10:21:29.426Z,18.66
2018-07-05T10:23:55.445Z,18.86
2018-07-05T10:26:21.477Z,18.98
2018-07-05T10:28:59.953Z,19.16
2018-07-05T10:31:38.590Z,19.27
2018-07-05T10:34:04.604Z,19.15
2018-07-05T10:36:30.652Z,19.52
2018-07-05T10:38:56.670Z,19.38
2018-07-05T10:41:35.445Z,19.47
2018-07-05T10:44:14.103Z,19.67
2018-07-05T10:46:52.609Z,19.45
2018-07-05T10:49:31.150Z,19.36
2018-07-05T10:52:09.672Z,18.98
2018-07-05T10:54:48.233Z,18.83
2018-07-05T10:57:26.881Z,18.87
2018-07-05T11:00:05.372Z,18.69
2018-07-05T11:02:43.803Z,18.86
2018-07-05T11:05:22.349Z,19.26
2018-07-05T11:08:00.704Z,19.40
2018-07-05T11:10:39.188Z,19.80
2018-07-05T11:13:17.677Z,19.27
2018-07-05T11:15:56.428Z,19.43
2018-07-05T11:18:35.048Z,18.99
2018-07-05T11:21:13.445Z,18.43
2018-07-05T11:23:51.865Z,18.55
2018-07-05T11:26:30.554Z,18.20
2018-07-05T11:29:09.005Z,18.09
2018-07-05T11:31:47.733Z,18.25
2018-07-05T11:34:26.240Z,18.27
2018-07-05T11:37:04.821Z,18.48
2018-07-05T11:39:43.384Z,18.66
2018-07-05T11:42:22.145Z,18.74
2018-07-05T11:45:00.565Z,19.20
2018-07-05T11:47:39.141Z,19.13
2018-07-05T11:50:17.623Z,18.90
2018-07-05T11:52:56.057Z,18.99
2018-07-05T11:55:34.580Z,18.91
2018-07-05T11:58:13.085Z,18.95
2018-07-05T12:00:51.496Z,18.91
2018-07-05T12:03:30.006Z,18.92
2018-07-05T12:06:08.429Z,18.83
2018-07-05T12:08:46.992Z,19.01
2018-07-05T12:11:25.644Z,19.36
2018-07-05T12:14:04.028Z,19.32
2018-07-05T12:16:42.640Z,19.28
2018-07-05T12:19:21.149Z,19.26
2018-07-05T12:21:59.672Z,19.31
2018-07-05T12:24:38.200Z,19.36
2018-07-05T12:27:16.709Z,19.24
2018-07-05T12:29:55.160Z,19.17
2018-07-05T12:32:33.622Z,19.22
2018-07-05T12:35:12.165Z,19.57
2018-07-05T12:37:50.854Z,19.29
2018-07-05T12:40:29.369Z,19.46
2018-07-05T12:43:07.904Z,19.44
2018-07-05T12:45:46.441Z,19.50
2018-07-05T12:48:25.065Z,19.36
2018-07-05T12:51:03.586Z,19.26
2018-07-05T12:53:42.125Z,19.38
2018-07-05T12:56:20.596Z,19.44
2018-07-05T12:58:59.036Z,19.82
2018-07-05T13:01:37.563Z,19.77
2018-07-05T13:04:16.283Z,19.81
2018-07-05T13:06:54.611Z,19.82
2018-07-05T13:09:33.170Z,20.00
2018-07-05T13:12:11.584Z,20.19
2018-07-05T13:14:50.170Z,19.90
2018-07-05T13:17:28.585Z,19.47
2018-07-05T13:20:07.202Z,19.68
2018-07-05T13:22:45.698Z,19.96
2018-07-05T13:25:24.324Z,19.86
2018-07-05T13:28:02.997Z,19.83
2018-07-05T13:30:41.704Z,20.21
2018-07-05T13:33:20.399Z,19.59
2018-07-05T13:35:58.826Z,19.96
2018-07-05T13:38:37.492Z,19.89
2018-07-05T13:41:16.729Z,19.81
2018-07-05T13:43:56.082Z,19.57
2018-07-05T13:46:35.009Z,20.12
2018-07-05T13:49:14.225Z,20.17
2018-07-05T13:51:52.802Z,20.19
2018-07-05T13:54:32.841Z,20.08
2018-07-05T13:57:11.477Z,19.85
2018-07-05T13:59:50.034Z,19.72
2018-07-05T14:02:28.580Z,19.66
2018-07-05T14:05:07.332Z,19.91
2018-07-05T14:07:45.807Z,20.10
2018-07-05T14:10:24.432Z,20.20
2018-07-05T14:13:03.011Z,20.13
2018-07-05T14:15:41.697Z,19.90
2018-07-05T14:18:21.395Z,19.97
2018-07-05T14:21:01.318Z,19.89
2018-07-05T14:23:40.057Z,20.07
2018-07-05T14:26:18.524Z,20.09
2018-07-05T14:28:57.140Z,20.10
2018-07-05T14:31:35.825Z,20.27
2018-07-05T14:34:14.190Z,20.49
2018-07-05T14:36:52.802Z,20.36
2018-07-05T14:39:31.201Z,20.07
2018-07-05T14:42:09.764Z,20.13
2018-07-05T14:44:48.099Z,20.36
2018-07-05T14:47:26.488Z,20.23
2018-07-05T14:50:05.079Z,20.24
2018-07-05T14:52:43.632Z,20.17
2018-07-05T14:55:22.041Z,19.93
2018-07-05T14:58:00.569Z,19.79
2018-07-05T15:00:39.202Z,19.81
2018-07-05T15:03:17.704Z,19.78
2018-07-05T15:05:56.214Z,19.54
2018-07-05T15:08:34.682Z,19.43
2018-07-05T15:11:13.216Z,19.47
2018-07-05T15:13:51.747Z,19.43
2018-07-05T15:16:30.403Z,19.40
2018-07-05T15:19:09.101Z,19.66
2018-07-05T15:21:47.739Z,19.40
2018-07-05T15:24:26.167Z,19.26
2018-07-05T15:27:04.676Z,19.24
2018-07-05T15:29:43.238Z,19.25
2018-07-05T15:32:21.818Z,19.19
2018-07-05T15:35:00.384Z,18.96
2018-07-05T15:37:38.736Z,18.95
2018-07-05T15:40:17.152Z,18.85
2018-07-05T15:42:55.685Z,18.54
2018-07-05T15:45:34.188Z,18.62
2018-07-05T15:48:12.617Z,18.30
2018-07-05T15:50:51.171Z,18.52
2018-07-05T15:53:29.641Z,18.43
2018-07-05T15:56:08.241Z,18.44
2018-07-05T15:58:46.804Z,18.54
2018-07-05T16:01:25.259Z,18.58
2018-07-05T16:04:03.620Z,18.60
2018-07-05T16:06:42.139Z,18.63
2018-07-05T16:09:20.656Z,18.52
2018-07-05T16:11:59.075Z,18.52
2018-07-05T16:14:37.483Z,18.62
2018-07-05T16:17:15.949Z,18.30
2018-07-05T16:19:54.427Z,18.41
2018-07-05T16:22:32.816Z,18.18
2018-07-05T16:25:11.289Z,18.24
2018-07-05T16:27:49.784Z,18.40
2018-07-05T16:30:28.273Z,18.42
2018-07-05T16:33:06.957Z,18.48
2018-07-05T16:35:45.389Z,18.45
2018-07-05T16:38:23.877Z,18.29
2018-07-05T16:41:02.365Z,18.16
2018-07-05T16:43:40.884Z,18.05
2018-07-05T16:46:19.439Z,18.15
2018-07-05T16:48:57.920Z,18.06
2018-07-05T16:51:36.428Z,17.94
2018-07-05T16:54:15.045Z,17.92
2018-07-05T16:56:53.539Z,17.97
2018-07-05T16:59:32.083Z,18.06
2018-07-05T17:02:10.697Z,17.92
2018-07-05T17:04:49.174Z,17.82
2018-07-05T17:07:28.503Z,17.94
2018-07-05T17:10:07.088Z,18.11
2018-07-05T17:12:45.664Z,17.96
2018-07-05T17:15:24.254Z,17.84
2018-07-05T17:18:02.880Z,17.84
2018-07-05T17:20:41.407Z,17.72
2018-07-05T17:23:19.976Z,17.51
2018-07-05T17:25:58.486Z,17.52
2018-07-05T17:28:36.992Z,17.52
2018-07-05T17:31:15.429Z,17.45
2018-07-05T17:33:53.960Z,17.40
2018-07-05T17:36:32.585Z,17.26
2018-07-05T17:39:11.103Z,17.34
2018-07-05T17:41:49.620Z,17.17
2018-07-05T17:44:28.127Z,17.18
2018-07-05T17:47:06.653Z,17.22
2018-07-05T17:49:45.153Z,17.22
2018-07-05T17:52:23.596Z,17.24
2018-07-05T17:55:02.140Z,17.27
2018-07-05T17:57:40.897Z,17.34
2018-07-05T18:00:19.397Z,17.33
2018-07-05T18:02:57.980Z,17.33
2018-07-05T18:05:36.486Z,17.38
2018-07-05T18:08:15.429Z,17.39
2018-07-05T18:10:53.926Z,17.39
2018-07-05T18:13:32.346Z,17.23
2018-07-05T18:16:10.870Z,17.19
2018-07-05T18:18:49.367Z,17.05
2018-07-05T18:21:27.847Z,17.06
2018-07-05T18:24:06.317Z,17.05
2018-07-05T18:26:44.713Z,17.00
2018-07-05T18:29:23.021Z,16.95
2018-07-05T18:32:01.505Z,16.85
2018-07-05T18:34:40.399Z,16.87
2018-07-05T18:37:18.925Z,16.88
2018-07-05T18:39:57.424Z,16.92
2018-07-05T18:42:35.948Z,16.80
2018-07-05T18:45:14.260Z,16.59
2018-07-05T18:47:52.691Z,16.38
2018-07-05T18:50:31.244Z,16.27
2018-07-05T18:53:09.713Z,16.32
2018-07-05T18:55:48.256Z,16.31
2018-07-05T18:58:26.779Z,16.27
2018-07-05T19:01:05.249Z,16.24
2018-07-05T19:03:43.685Z,16.22
2018-07-05T19:06:22.204Z,16.08
2018-07-05T19:09:00.721Z,16.01
2018-07-05T19:11:39.963Z,15.98
2018-07-05T19:14:18.566Z,16.03
2018-07-05T19:16:56.948Z,16.08
2018-07-05T19:19:35.380Z,16.07
2018-07-05T19:22:13.905Z,16.08
2018-07-05T19:24:52.552Z,16.15
2018-07-05T19:27:31.072Z,16.25
2018-07-05T19:30:09.826Z,16.23
2018-07-05T19:32:48.457Z,16.07
2018-07-05T19:35:26.913Z,16.09
2018-07-05T19:38:05.448Z,16.09
2018-07-05T19:40:43.941Z,16.08
2018-07-05T19:43:23.177Z,16.22
2018-07-05T19:46:01.688Z,16.26
2018-07-05T19:48:40.136Z,16.17
2018-07-05T19:51:18.765Z,16.14
2018-07-05T19:53:57.319Z,16.21
2018-07-05T19:56:36.125Z,16.22
2018-07-05T19:59:14.730Z,15.95
2018-07-05T20:01:53.429Z,15.80
2018-07-05T20:04:31.959Z,15.88
2018-07-05T20:07:10.399Z,15.73
2018-07-05T20:09:48.898Z,15.63
2018-07-05T20:12:27.458Z,15.47
2018-07-05T20:15:05.955Z,15.31
2018-07-05T20:17:44.354Z,15.19
2018-07-05T20:20:23.061Z,15.35
2018-07-05T20:23:01.585Z,15.37
2018-07-05T20:25:40.090Z,15.33
2018-07-05T20:28:18.626Z,15.38
2018-07-05T20:30:57.257Z,15.17
2018-07-05T20:33:35.744Z,15.16
2018-07-05T20:36:14.285Z,15.06
2018-07-05T20:38:52.821Z,15.07
2018-07-05T20:41:31.326Z,15.11
2018-07-05T20:44:09.771Z,15.31
2018-07-05T20:46:48.406Z,15.22
2018-07-05T20:49:26.956Z,15.25
2018-07-05T20:52:05.641Z,15.11
2018-07-05T20:54:44.141Z,15.13
2018-07-05T20:57:22.513Z,15.13
2018-07-05T21:00:01.102Z,15.19
2018-07-05T21:02:39.655Z,15.17
2018-07-05T21:05:18.080Z,15.22
2018-07-05T21:07:56.499Z,15.05
2018-07-05T21:10:35.018Z,15.10
2018-07-05T21:13:13.541Z,15.17
2018-07-05T21:15:51.962Z,15.29
2018-07-05T21:18:30.461Z,15.17
2018-07-05T21:21:09.064Z,15.07
2018-07-05T21:23:47.589Z,15.13
2018-07-05T21:26:26.577Z,15.25
2018-07-05T21:29:05.130Z,15.12
2018-07-05T21:31:43.632Z,15.05
2018-07-05T21:34:22.196Z,15.13
2018-07-05T21:37:00.630Z,15.17
2018-07-05T21:39:39.374Z,15.09
2018-07-05T21:42:17.838Z,15.18
2018-07-05T21:44:56.281Z,15.15
2018-07-05T21:47:34.779Z,15.18
2018-07-05T21:50:14.534Z,15.16
2018-07-05T21:52:53.295Z,15.20
2018-07-05T21:55:31.871Z,15.24
2018-07-05T21:58:10.499Z,15.23
2018-07-05T22:00:49.125Z,15.22
2018-07-05T22:03:27.531Z,15.29
2018-07-05T22:06:06.169Z,15.23
2018-07-05T22:08:44.712Z,15.29
2018-07-05T22:11:23.036Z,15.25
2018-07-05T22:14:01.575Z,15.33
2018-07-05T22:16:45.874Z,15.35
2018-07-05T22:19:30.414Z,15.37
2018-07-05T22:22:14.816Z,15.35
2018-07-05T22:24:59.475Z,15.33
2018-07-05T22:27:44.011Z,15.35
2018-07-05T22:30:28.739Z,15.33
2018-07-05T22:33:07.421Z,15.38
2018-07-05T22:35:45.905Z,15.39
2018-07-05T22:38:24.459Z,15.41
2018-07-05T22:41:03.029Z,15.41
2018-07-05T22:43:41.573Z,15.42
2018-07-05T22:46:20.056Z,15.41
2018-07-05T22:48:58.671Z,15.46
2018-07-05T22:51:37.236Z,15.48
2018-07-05T22:54:15.820Z,15.50
2018-07-05T22:56:54.338Z,15.47
2018-07-05T22:59:32.880Z,15.48
2018-07-05T23:02:11.557Z,15.46
2018-07-05T23:04:50.021Z,15.50
2018-07-05T23:07:28.540Z,15.49
2018-07-05T23:10:07.067Z,15.47
2018-07-05T23:12:45.625Z,15.45
2018-07-05T23:15:24.191Z,15.50
2018-07-05T23:18:02.817Z,15.47
2018-07-05T23:20:41.410Z,15.47
2018-07-05T23:23:19.944Z,15.47
2018-07-05T23:25:58.653Z,15.44
2018-07-05T23:28:37.304Z,15.44
2018-07-05T23:31:15.793Z,15.50
2018-07-05T23:33:54.185Z,15.51
2018-07-05T23:36:32.732Z,15.50
2018-07-05T23:39:11.165Z,15.51
2018-07-05T23:41:49.804Z,15.52
2018-07-05T23:44:28.306Z,15.54
2018-07-05T23:47:06.825Z,15.55
2018-07-05T23:49:45.334Z,15.54
2018-07-05T23:52:23.901Z,15.55
2018-07-05T23:55:02.533Z,15.54
2018-07-05T23:57:41.344Z,15.53
